sensor_id;sensor_type;location;lat;lon;timestamp;temperature;humidity
41168;DHT22;26906;45.658;9.272;2022-12-07T06:38:54;3.30;99.90
41168;DHT22;26906;45.658;9.272;2022-12-07T06:41:21;3.50;99.90
41168;DHT22;26906;45.658;9.272;2022-12-07T06:43:47;3.60;99.90
41168;DHT22;26906;45.658;9.272;2022-12-07T06:46:14;3.50;99.90
41168;DHT22;26906;45.658;9.272;2022-12-07T06:48:40;3.50;99.90
41168;DHT22;26906;45.658;9.272;2022-12-07T06:51:10;3.60;99.90
41168;DHT22;26906;45.658;9.272;2022-12-07T06:53:36;3.50;99.90
41168;DHT22;26906;45.658;9.272;2022-12-07T06:56:02;3.50;99.90
41168;DHT22;26906;45.658;9.272;2022-12-07T06:58:28;3.60;99.90
41168;DHT22;26906;45.658;9.272;2022-12-07T07:00:54;3.60;99.90
41168;DHT22;26906;45.658;9.272;2022-12-07T07:03:19;3.60;99.90
41168;DHT22;26906;45.658;9.272;2022-12-07T07:05:45;3.50;99.90
41168;DHT22;26906;45.658;9.272;2022-12-07T07:08:11;3.50;99.90
41168;DHT22;26906;45.658;9.272;2022-12-07T07:10:37;3.60;99.90
41168;DHT22;26906;45.658;9.272;2022-12-07T07:13:03;3.60;99.90
41168;DHT22;26906;45.658;9.272;2022-12-07T07:15:31;3.60;99.90
41168;DHT22;26906;45.658;9.272;2022-12-07T07:17:57;3.50;99.90
41168;DHT22;26906;45.658;9.272;2022-12-07T07:20:24;3.60;99.90
41168;DHT22;26906;45.658;9.272;2022-12-07T07:22:51;3.50;99.90
41168;DHT22;26906;45.658;9.272;2022-12-07T07:25:19;3.80;99.90
41168;DHT22;26906;45.658;9.272;2022-12-07T07:27:44;4.00;99.90
41168;DHT22;26906;45.658;9.272;2022-12-07T07:30:10;3.50;99.90
41168;DHT22;26906;45.658;9.272;2022-12-07T07:32:36;3.50;99.90
41168;DHT22;26906;45.658;9.272;2022-12-07T07:35:03;3.60;99.90
41168;DHT22;26906;45.658;9.272;2022-12-07T07:37:29;3.60;99.90
41168;DHT22;26906;45.658;9.272;2022-12-07T07:39:54;3.70;99.90
41168;DHT22;26906;45.658;9.272;2022-12-07T07:42:20;3.70;99.90
41168;DHT22;26906;45.658;9.272;2022-12-07T07:44:46;4.00;99.90
41168;DHT22;26906;45.658;9.272;2022-12-07T07:47:12;3.80;99.90
41168;DHT22;26906;45.658;9.272;2022-12-07T07:49:38;3.80;99.90
41168;DHT22;26906;45.658;9.272;2022-12-07T07:52:05;3.90;99.90
41168;DHT22;26906;45.658;9.272;2022-12-07T07:54:32;3.90;99.90
41168;DHT22;26906;45.658;9.272;2022-12-07T07:56:57;3.90;99.90
41168;DHT22;26906;45.658;9.272;2022-12-07T07:59:23;3.90;99.90
41168;DHT22;26906;45.658;9.272;2022-12-07T08:01:50;4.10;99.90
41168;DHT22;26906;45.658;9.272;2022-12-07T08:04:18;4.30;99.90
41168;DHT22;26906;45.658;9.272;2022-12-07T08:06:44;4.10;99.90
41168;DHT22;26906;45.658;9.272;2022-12-07T08:09:09;4.30;99.90
41168;DHT22;26906;45.658;9.272;2022-12-07T08:11:36;4.40;99.90
41168;DHT22;26906;45.658;9.272;2022-12-07T08:14:03;4.90;99.90
41168;DHT22;26906;45.658;9.272;2022-12-07T08:16:29;4.60;99.90
41168;DHT22;26906;45.658;9.272;2022-12-07T08:18:55;4.70;99.90
41168;DHT22;26906;45.658;9.272;2022-12-07T08:21:21;4.60;99.90
41168;DHT22;26906;45.658;9.272;2022-12-07T08:23:48;4.80;99.90
41168;DHT22;26906;45.658;9.272;2022-12-07T08:26:16;4.70;99.90
41168;DHT22;26906;45.658;9.272;2022-12-07T08:28:42;4.90;99.90
41168;DHT22;26906;45.658;9.272;2022-12-07T08:31:15;5.00;99.90
41168;DHT22;26906;45.658;9.272;2022-12-07T08:33:45;5.20;99.90
41168;DHT22;26906;45.658;9.272;2022-12-07T08:36:12;5.40;99.90
41168;DHT22;26906;45.658;9.272;2022-12-07T08:38:39;5.50;99.90
41168;DHT22;26906;45.658;9.272;2022-12-07T08:41:06;5.70;99.90
41168;DHT22;26906;45.658;9.272;2022-12-07T08:43:32;5.80;99.90
41168;DHT22;26906;45.658;9.272;2022-12-07T08:46:20;5.90;99.90
41168;DHT22;26906;45.658;9.272;2022-12-07T08:48:57;6.00;99.90
41168;DHT22;26906;45.658;9.272;2022-12-07T08:51:24;6.20;99.90
41168;DHT22;26906;45.658;9.272;2022-12-07T08:53:51;6.30;99.90
41168;DHT22;26906;45.658;9.272;2022-12-07T08:56:18;6.50;99.90
41168;DHT22;26906;45.658;9.272;2022-12-07T08:58:44;6.60;99.90
41168;DHT22;26906;45.658;9.272;2022-12-07T09:01:10;6.60;99.90
41168;DHT22;26906;45.658;9.272;2022-12-07T09:03:36;6.70;99.90
41168;DHT22;26906;45.658;9.272;2022-12-07T09:06:02;6.70;99.90
41168;DHT22;26906;45.658;9.272;2022-12-07T09:08:33;6.90;99.90
41168;DHT22;26906;45.658;9.272;2022-12-07T09:10:59;7.00;99.90
41168;DHT22;26906;45.658;9.272;2022-12-07T09:13:25;7.20;99.90
41168;DHT22;26906;45.658;9.272;2022-12-07T09:15:50;7.20;99.90
41168;DHT22;26906;45.658;9.272;2022-12-07T09:18:16;7.10;99.90
41168;DHT22;26906;45.658;9.272;2022-12-07T09:20:42;7.20;99.90
41168;DHT22;26906;45.658;9.272;2022-12-07T09:23:07;7.30;99.90
41168;DHT22;26906;45.658;9.272;2022-12-07T09:25:36;7.30;99.90
41168;DHT22;26906;45.658;9.272;2022-12-07T09:28:02;7.40;99.90
41168;DHT22;26906;45.658;9.272;2022-12-07T09:30:28;7.50;99.90
41168;DHT22;26906;45.658;9.272;2022-12-07T09:32:57;7.60;99.90
41168;DHT22;26906;45.658;9.272;2022-12-07T09:35:24;7.70;99.90
41168;DHT22;26906;45.658;9.272;2022-12-07T09:37:50;7.70;99.90
41168;DHT22;26906;45.658;9.272;2022-12-07T09:40:18;7.90;99.90
41168;DHT22;26906;45.658;9.272;2022-12-07T09:42:48;7.90;99.90
41168;DHT22;26906;45.658;9.272;2022-12-07T09:45:30;8.10;99.90
41168;DHT22;26906;45.658;9.272;2022-12-07T09:47:58;8.10;99.90
41168;DHT22;26906;45.658;9.272;2022-12-07T09:50:27;8.20;99.90
41168;DHT22;26906;45.658;9.272;2022-12-07T09:53:00;8.30;99.90
41168;DHT22;26906;45.658;9.272;2022-12-07T09:55:33;8.40;99.90
41168;DHT22;26906;45.658;9.272;2022-12-07T09:58:04;8.60;99.90
41168;DHT22;26906;45.658;9.272;2022-12-07T10:00:30;8.70;99.90
41168;DHT22;26906;45.658;9.272;2022-12-07T10:03:00;8.70;99.90
41168;DHT22;26906;45.658;9.272;2022-12-07T10:07:53;9.00;99.90
41168;DHT22;26906;45.658;9.272;2022-12-07T10:10:24;8.90;99.90
41168;DHT22;26906;45.658;9.272;2022-12-07T10:12:56;8.90;99.90
41168;DHT22;26906;45.658;9.272;2022-12-07T10:15:42;8.80;99.90
41168;DHT22;26906;45.658;9.272;2022-12-07T10:26:35;9.40;99.90
41168;DHT22;26906;45.658;9.272;2022-12-07T10:29:37;9.60;99.90
41168;DHT22;26906;45.658;9.272;2022-12-07T10:32:06;9.60;99.90
41168;DHT22;26906;45.658;9.272;2022-12-07T10:35:15;9.70;99.90
41168;DHT22;26906;45.658;9.272;2022-12-07T10:37:42;9.80;99.90
41168;DHT22;26906;45.658;9.272;2022-12-07T10:40:28;9.80;99.90
41168;DHT22;26906;45.658;9.272;2022-12-07T10:45:35;9.90;99.90
41168;DHT22;26906;45.658;9.272;2022-12-07T10:51:15;10.10;99.90
41168;DHT22;26906;45.658;9.272;2022-12-07T10:53:52;10.20;99.90
41168;DHT22;26906;45.658;9.272;2022-12-07T10:56:55;10.20;99.90
41168;DHT22;26906;45.658;9.272;2022-12-07T10:59:47;10.20;99.90
41168;DHT22;26906;45.658;9.272;2022-12-07T11:07:52;10.40;99.90
41168;DHT22;26906;45.658;9.272;2022-12-07T11:18:16;10.50;99.90
41168;DHT22;26906;45.658;9.272;2022-12-07T11:23:45;10.80;99.90
41168;DHT22;26906;45.658;9.272;2022-12-07T11:29:43;10.90;99.90
41168;DHT22;26906;45.658;9.272;2022-12-07T11:32:44;11.00;99.90
41168;DHT22;26906;45.658;9.272;2022-12-07T11:40:38;10.90;99.90
41168;DHT22;26906;45.658;9.272;2022-12-07T11:43:26;11.00;99.90
41168;DHT22;26906;45.658;9.272;2022-12-07T11:45:59;11.10;99.90
41168;DHT22;26906;45.658;9.272;2022-12-07T11:48:41;11.20;99.90
41168;DHT22;26906;45.658;9.272;2022-12-07T11:51:11;11.20;99.90
41168;DHT22;26906;45.658;9.272;2022-12-07T11:54:35;11.20;99.90
41168;DHT22;26906;45.658;9.272;2022-12-07T11:57:02;11.40;99.90
41168;DHT22;26906;45.658;9.272;2022-12-07T11:59:36;11.50;99.90
41168;DHT22;26906;45.658;9.272;2022-12-07T12:02:16;11.50;99.90
41168;DHT22;26906;45.658;9.272;2022-12-07T12:04:54;11.40;99.90
41168;DHT22;26906;45.658;9.272;2022-12-07T12:07:24;11.40;99.90
41168;DHT22;26906;45.658;9.272;2022-12-07T12:09:56;11.50;99.90
41168;DHT22;26906;45.658;9.272;2022-12-07T12:12:35;11.50;99.90
41168;DHT22;26906;45.658;9.272;2022-12-07T12:15:23;11.50;99.90
41168;DHT22;26906;45.658;9.272;2022-12-07T12:18:18;11.70;99.90
41168;DHT22;26906;45.658;9.272;2022-12-07T12:21:09;11.60;99.90
41168;DHT22;26906;45.658;9.272;2022-12-07T12:23:56;11.70;99.90
41168;DHT22;26906;45.658;9.272;2022-12-07T12:26:25;11.70;99.90
41168;DHT22;26906;45.658;9.272;2022-12-07T12:29:28;11.70;99.90
41168;DHT22;26906;45.658;9.272;2022-12-07T12:32:05;11.60;99.90
41168;DHT22;26906;45.658;9.272;2022-12-07T12:34:40;11.70;99.90
41168;DHT22;26906;45.658;9.272;2022-12-07T12:42:55;11.80;99.90
41168;DHT22;26906;45.658;9.272;2022-12-07T12:45:30;11.80;99.90
41168;DHT22;26906;45.658;9.272;2022-12-07T12:48:04;11.70;99.90
41168;DHT22;26906;45.658;9.272;2022-12-07T12:50:36;11.70;99.90
41168;DHT22;26906;45.658;9.272;2022-12-07T12:53:22;11.70;99.90
41168;DHT22;26906;45.658;9.272;2022-12-07T12:58:35;11.60;99.90
41168;DHT22;26906;45.658;9.272;2022-12-07T13:01:37;11.60;99.90
41168;DHT22;26906;45.658;9.272;2022-12-07T13:04:17;11.60;99.90
41168;DHT22;26906;45.658;9.272;2022-12-07T13:06:46;11.70;99.90
41168;DHT22;26906;45.658;9.272;2022-12-07T13:09:21;11.70;99.90
41168;DHT22;26906;45.658;9.272;2022-12-07T13:11:49;11.80;99.90
41168;DHT22;26906;45.658;9.272;2022-12-07T13:19:59;11.80;99.90
41168;DHT22;26906;45.658;9.272;2022-12-07T13:22:48;11.70;99.90
41168;DHT22;26906;45.658;9.272;2022-12-07T13:27:48;11.80;99.90
41168;DHT22;26906;45.658;9.272;2022-12-07T13:30:20;11.70;99.90
41168;DHT22;26906;45.658;9.272;2022-12-07T13:32:55;11.70;99.90
41168;DHT22;26906;45.658;9.272;2022-12-07T13:37:53;11.70;99.90
41168;DHT22;26906;45.658;9.272;2022-12-07T13:40:21;11.70;99.90
41168;DHT22;26906;45.658;9.272;2022-12-07T13:42:59;11.60;99.90
41168;DHT22;26906;45.658;9.272;2022-12-07T13:45:32;11.50;99.90
41168;DHT22;26906;45.658;9.272;2022-12-07T13:48:19;11.60;99.90
41168;DHT22;26906;45.658;9.272;2022-12-07T13:50:54;11.60;99.90
41168;DHT22;26906;45.658;9.272;2022-12-07T13:53:20;11.60;99.90
41168;DHT22;26906;45.658;9.272;2022-12-07T13:55:47;11.50;99.90
41168;DHT22;26906;45.658;9.272;2022-12-07T13:58:14;11.40;99.90
41168;DHT22;26906;45.658;9.272;2022-12-07T14:00:43;11.30;99.90
41168;DHT22;26906;45.658;9.272;2022-12-07T14:05:38;11.30;99.90
41168;DHT22;26906;45.658;9.272;2022-12-07T14:10:52;11.30;99.90
41168;DHT22;26906;45.658;9.272;2022-12-07T14:13:34;11.30;99.90
41168;DHT22;26906;45.658;9.272;2022-12-07T14:16:01;11.40;99.90
41168;DHT22;26906;45.658;9.272;2022-12-07T14:18:36;11.30;99.90
41168;DHT22;26906;45.658;9.272;2022-12-07T14:21:18;11.20;99.90
41168;DHT22;26906;45.658;9.272;2022-12-07T14:23:45;11.20;99.90
41168;DHT22;26906;45.658;9.272;2022-12-07T14:26:16;11.10;99.90
41168;DHT22;26906;45.658;9.272;2022-12-07T14:28:45;11.10;99.90
41168;DHT22;26906;45.658;9.272;2022-12-07T14:31:13;11.00;99.90
41168;DHT22;26906;45.658;9.272;2022-12-07T14:33:44;11.00;99.90
41168;DHT22;26906;45.658;9.272;2022-12-07T14:36:14;10.90;99.90
41168;DHT22;26906;45.658;9.272;2022-12-07T14:38:40;10.90;99.90
41168;DHT22;26906;45.658;9.272;2022-12-07T14:41:13;10.80;99.90
41168;DHT22;26906;45.658;9.272;2022-12-07T14:43:58;10.70;99.90
41168;DHT22;26906;45.658;9.272;2022-12-07T14:46:24;10.70;99.90
41168;DHT22;26906;45.658;9.272;2022-12-07T14:48:53;10.60;99.90
41168;DHT22;26906;45.658;9.272;2022-12-07T14:51:22;10.50;99.90
41168;DHT22;26906;45.658;9.272;2022-12-07T14:53:52;10.50;99.90
41168;DHT22;26906;45.658;9.272;2022-12-07T14:56:18;10.40;99.90
41168;DHT22;26906;45.658;9.272;2022-12-07T14:58:44;10.30;99.90
41168;DHT22;26906;45.658;9.272;2022-12-07T15:01:10;10.20;99.90
41168;DHT22;26906;45.658;9.272;2022-12-07T15:03:36;10.10;99.90
41168;DHT22;26906;45.658;9.272;2022-12-07T15:06:04;10.00;99.90
41168;DHT22;26906;45.658;9.272;2022-12-07T15:08:30;9.90;99.90
41168;DHT22;26906;45.658;9.272;2022-12-07T15:10:56;9.90;99.90
41168;DHT22;26906;45.658;9.272;2022-12-07T15:13:21;9.80;99.90
41168;DHT22;26906;45.658;9.272;2022-12-07T15:16:10;10.00;99.90
41168;DHT22;26906;45.658;9.272;2022-12-07T15:18:37;10.30;99.90
41168;DHT22;26906;45.658;9.272;2022-12-07T15:21:02;10.10;99.90
41168;DHT22;26906;45.658;9.272;2022-12-07T15:23:28;10.00;99.90
41168;DHT22;26906;45.658;9.272;2022-12-07T15:25:54;9.80;99.90
41168;DHT22;26906;45.658;9.272;2022-12-07T15:28:19;9.70;99.90
41168;DHT22;26906;45.658;9.272;2022-12-07T15:30:45;9.70;99.90
41168;DHT22;26906;45.658;9.272;2022-12-07T15:33:12;9.50;99.90
41168;DHT22;26906;45.658;9.272;2022-12-07T15:35:40;9.30;99.90
41168;DHT22;26906;45.658;9.272;2022-12-07T15:38:06;9.30;99.90
41168;DHT22;26906;45.658;9.272;2022-12-07T15:40:33;9.20;99.90
41168;DHT22;26906;45.658;9.272;2022-12-07T15:43:00;9.10;99.90
41168;DHT22;26906;45.658;9.272;2022-12-07T15:45:26;9.70;99.90
41168;DHT22;26906;45.658;9.272;2022-12-07T15:47:52;8.80;99.90
41168;DHT22;26906;45.658;9.272;2022-12-07T15:50:18;8.70;99.90
41168;DHT22;26906;45.658;9.272;2022-12-07T15:52:43;8.70;99.90
41168;DHT22;26906;45.658;9.272;2022-12-07T15:55:12;8.60;99.90
41168;DHT22;26906;45.658;9.272;2022-12-07T15:57:38;8.50;99.90
41168;DHT22;26906;45.658;9.272;2022-12-07T16:00:05;8.40;99.90
41168;DHT22;26906;45.658;9.272;2022-12-07T16:02:31;8.40;99.90
41168;DHT22;26906;45.658;9.272;2022-12-07T16:04:57;8.40;99.90
41168;DHT22;26906;45.658;9.272;2022-12-07T16:07:23;8.30;99.90
41168;DHT22;26906;45.658;9.272;2022-12-07T16:09:49;8.30;99.90
41168;DHT22;26906;45.658;9.272;2022-12-07T16:12:15;8.10;99.90
41168;DHT22;26906;45.658;9.272;2022-12-07T16:14:41;8.10;99.90
41168;DHT22;26906;45.658;9.272;2022-12-07T16:17:07;8.00;99.90
41168;DHT22;26906;45.658;9.272;2022-12-07T16:19:33;8.00;99.90
41168;DHT22;26906;45.658;9.272;2022-12-07T16:21:59;7.90;99.90
41168;DHT22;26906;45.658;9.272;2022-12-07T16:24:27;7.80;99.90
41168;DHT22;26906;45.658;9.272;2022-12-07T16:26:52;7.70;99.90
41168;DHT22;26906;45.658;9.272;2022-12-07T16:29:20;7.60;99.90
41168;DHT22;26906;45.658;9.272;2022-12-07T16:31:47;7.70;99.90
41168;DHT22;26906;45.658;9.272;2022-12-07T16:34:14;7.70;99.90
41168;DHT22;26906;45.658;9.272;2022-12-07T16:36:43;7.50;99.90
41168;DHT22;26906;45.658;9.272;2022-12-07T16:39:09;7.40;99.90
41168;DHT22;26906;45.658;9.272;2022-12-07T16:41:35;7.40;99.90
41168;DHT22;26906;45.658;9.272;2022-12-07T16:44:06;7.40;99.90
41168;DHT22;26906;45.658;9.272;2022-12-07T16:46:34;7.50;99.90
41168;DHT22;26906;45.658;9.272;2022-12-07T16:49:01;7.40;99.90
41168;DHT22;26906;45.658;9.272;2022-12-07T16:51:29;7.50;99.90
41168;DHT22;26906;45.658;9.272;2022-12-07T16:53:55;7.20;99.90
41168;DHT22;26906;45.658;9.272;2022-12-07T16:56:21;7.10;99.90
41168;DHT22;26906;45.658;9.272;2022-12-07T16:58:47;7.20;99.90
41168;DHT22;26906;45.658;9.272;2022-12-07T17:01:22;7.10;99.90
41168;DHT22;26906;45.658;9.272;2022-12-07T17:03:48;7.40;99.90
41168;DHT22;26906;45.658;9.272;2022-12-07T17:08:45;6.90;99.90
41168;DHT22;26906;45.658;9.272;2022-12-07T17:11:16;6.90;99.90
41168;DHT22;26906;45.658;9.272;2022-12-07T17:13:45;6.80;99.90
41168;DHT22;26906;45.658;9.272;2022-12-07T17:16:44;6.70;99.90
41168;DHT22;26906;45.658;9.272;2022-12-07T17:19:12;6.60;99.90
41168;DHT22;26906;45.658;9.272;2022-12-07T17:21:41;6.70;99.90
41168;DHT22;26906;45.658;9.272;2022-12-07T17:24:10;6.60;99.90
41168;DHT22;26906;45.658;9.272;2022-12-07T17:26:38;6.70;99.90
41168;DHT22;26906;45.658;9.272;2022-12-07T17:29:07;6.70;99.90
41168;DHT22;26906;45.658;9.272;2022-12-07T17:31:34;6.60;99.90
41168;DHT22;26906;45.658;9.272;2022-12-07T17:34:00;6.50;99.90
41168;DHT22;26906;45.658;9.272;2022-12-07T17:36:28;6.70;99.90
41168;DHT22;26906;45.658;9.272;2022-12-07T17:38:55;6.40;99.90
41168;DHT22;26906;45.658;9.272;2022-12-07T17:41:26;6.40;99.90
41168;DHT22;26906;45.658;9.272;2022-12-07T17:44:13;6.30;99.90
41168;DHT22;26906;45.658;9.272;2022-12-07T17:46:41;6.30;99.90
41168;DHT22;26906;45.658;9.272;2022-12-07T17:49:07;6.20;99.90
41168;DHT22;26906;45.658;9.272;2022-12-07T17:51:34;6.20;99.90
41168;DHT22;26906;45.658;9.272;2022-12-07T17:54:20;6.30;99.90
41168;DHT22;26906;45.658;9.272;2022-12-07T17:56:46;6.30;99.90
41168;DHT22;26906;45.658;9.272;2022-12-07T17:59:12;6.40;99.90
41168;DHT22;26906;45.658;9.272;2022-12-07T18:01:40;6.40;99.90
41168;DHT22;26906;45.658;9.272;2022-12-07T18:04:07;6.10;99.90
41168;DHT22;26906;45.658;9.272;2022-12-07T18:06:36;6.10;99.90
41168;DHT22;26906;45.658;9.272;2022-12-07T18:09:03;6.00;99.90
41168;DHT22;26906;45.658;9.272;2022-12-07T18:11:30;6.30;99.90
41168;DHT22;26906;45.658;9.272;2022-12-07T18:13:55;5.90;99.90
41168;DHT22;26906;45.658;9.272;2022-12-07T18:16:24;5.90;99.90
41168;DHT22;26906;45.658;9.272;2022-12-07T18:18:52;5.80;99.90
41168;DHT22;26906;45.658;9.272;2022-12-07T18:21:26;5.90;99.90
41168;DHT22;26906;45.658;9.272;2022-12-07T18:23:54;6.10;99.90
41168;DHT22;26906;45.658;9.272;2022-12-07T18:26:24;5.90;99.90
41168;DHT22;26906;45.658;9.272;2022-12-07T18:28:50;5.90;99.90
41168;DHT22;26906;45.658;9.272;2022-12-07T18:31:17;6.20;99.90
41168;DHT22;26906;45.658;9.272;2022-12-07T18:33:44;5.80;99.90
41168;DHT22;26906;45.658;9.272;2022-12-07T18:36:10;5.70;99.90
41168;DHT22;26906;45.658;9.272;2022-12-07T18:38:37;5.80;99.90
41168;DHT22;26906;45.658;9.272;2022-12-07T18:41:03;5.80;99.90
41168;DHT22;26906;45.658;9.272;2022-12-07T18:43:28;5.60;99.90
41168;DHT22;26906;45.658;9.272;2022-12-07T18:45:54;5.50;99.90
41168;DHT22;26906;45.658;9.272;2022-12-07T18:48:23;5.60;99.90
41168;DHT22;26906;45.658;9.272;2022-12-07T18:51:00;5.80;99.90
41168;DHT22;26906;45.658;9.272;2022-12-07T18:53:27;5.50;99.90
41168;DHT22;26906;45.658;9.272;2022-12-07T18:58:27;5.50;99.90
41168;DHT22;26906;45.658;9.272;2022-12-07T19:00:56;5.40;99.90
41168;DHT22;26906;45.658;9.272;2022-12-07T19:03:22;5.40;99.90
41168;DHT22;26906;45.658;9.272;2022-12-07T19:05:50;5.30;99.90
41168;DHT22;26906;45.658;9.272;2022-12-07T19:08:16;5.30;99.90
41168;DHT22;26906;45.658;9.272;2022-12-07T19:10:43;5.30;99.90
41168;DHT22;26906;45.658;9.272;2022-12-07T19:13:09;5.60;99.90
41168;DHT22;26906;45.658;9.272;2022-12-07T19:15:39;5.30;99.90
41168;DHT22;26906;45.658;9.272;2022-12-07T19:18:05;6.00;99.90
41168;DHT22;26906;45.658;9.272;2022-12-07T19:20:31;5.20;99.90
41168;DHT22;26906;45.658;9.272;2022-12-07T19:23:01;5.20;99.90
41168;DHT22;26906;45.658;9.272;2022-12-07T19:25:27;5.40;99.90
41168;DHT22;26906;45.658;9.272;2022-12-07T19:27:52;5.10;99.90
41168;DHT22;26906;45.658;9.272;2022-12-07T19:30:19;5.20;99.90
41168;DHT22;26906;45.658;9.272;2022-12-07T19:32:44;5.40;99.90
41168;DHT22;26906;45.658;9.272;2022-12-07T19:35:11;5.40;99.90
41168;DHT22;26906;45.658;9.272;2022-12-07T19:37:37;5.80;99.90
41168;DHT22;26906;45.658;9.272;2022-12-07T19:40:05;5.40;99.90
41168;DHT22;26906;45.658;9.272;2022-12-07T19:42:30;5.40;99.90
41168;DHT22;26906;45.658;9.272;2022-12-07T19:45:01;5.50;99.90
41168;DHT22;26906;45.658;9.272;2022-12-07T19:47:27;5.50;99.90
41168;DHT22;26906;45.658;9.272;2022-12-07T19:49:54;5.50;99.90
41168;DHT22;26906;45.658;9.272;2022-12-07T19:52:22;5.40;99.90
41168;DHT22;26906;45.658;9.272;2022-12-07T19:54:48;5.30;99.90
41168;DHT22;26906;45.658;9.272;2022-12-07T19:57:15;5.20;99.90
41168;DHT22;26906;45.658;9.272;2022-12-07T19:59:42;5.00;99.90
41168;DHT22;26906;45.658;9.272;2022-12-07T20:02:13;5.00;99.90
41168;DHT22;26906;45.658;9.272;2022-12-07T20:04:39;5.20;99.90
41168;DHT22;26906;45.658;9.272;2022-12-07T20:07:05;5.00;99.90
41168;DHT22;26906;45.658;9.272;2022-12-07T20:09:30;5.10;99.90
41168;DHT22;26906;45.658;9.272;2022-12-07T20:11:56;4.90;99.90
41168;DHT22;26906;45.658;9.272;2022-12-07T20:14:57;5.50;99.90
41168;DHT22;26906;45.658;9.272;2022-12-07T20:17:23;5.00;99.90
41168;DHT22;26906;45.658;9.272;2022-12-07T20:19:49;5.00;99.90
41168;DHT22;26906;45.658;9.272;2022-12-07T20:22:17;4.90;99.90
41168;DHT22;26906;45.658;9.272;2022-12-07T20:24:43;5.00;99.90
41168;DHT22;26906;45.658;9.272;2022-12-07T20:27:10;5.00;99.90
41168;DHT22;26906;45.658;9.272;2022-12-07T20:29:36;5.00;99.90
41168;DHT22;26906;45.658;9.272;2022-12-07T20:32:02;5.00;99.90
41168;DHT22;26906;45.658;9.272;2022-12-07T20:34:28;5.00;99.90
41168;DHT22;26906;45.658;9.272;2022-12-07T20:36:54;5.10;99.90
41168;DHT22;26906;45.658;9.272;2022-12-07T20:39:21;5.20;99.90
41168;DHT22;26906;45.658;9.272;2022-12-07T20:41:49;5.80;99.90
41168;DHT22;26906;45.658;9.272;2022-12-07T20:44:33;5.10;99.90
41168;DHT22;26906;45.658;9.272;2022-12-07T20:47:00;5.20;99.90
41168;DHT22;26906;45.658;9.272;2022-12-07T20:49:25;5.10;99.90
41168;DHT22;26906;45.658;9.272;2022-12-07T20:51:52;5.10;99.90
41168;DHT22;26906;45.658;9.272;2022-12-07T20:54:18;5.10;99.90
41168;DHT22;26906;45.658;9.272;2022-12-07T20:56:44;5.30;99.90
41168;DHT22;26906;45.658;9.272;2022-12-07T20:59:12;5.10;99.90
41168;DHT22;26906;45.658;9.272;2022-12-07T21:01:38;5.20;99.90
41168;DHT22;26906;45.658;9.272;2022-12-07T21:04:04;5.50;99.90
41168;DHT22;26906;45.658;9.272;2022-12-07T21:06:30;5.20;99.90
41168;DHT22;26906;45.658;9.272;2022-12-07T21:08:59;5.30;99.90
41168;DHT22;26906;45.658;9.272;2022-12-07T21:11:26;5.30;99.90
41168;DHT22;26906;45.658;9.272;2022-12-07T21:13:52;5.40;99.90
41168;DHT22;26906;45.658;9.272;2022-12-07T21:16:24;5.30;99.90
41168;DHT22;26906;45.658;9.272;2022-12-07T21:18:51;5.40;99.90
41168;DHT22;26906;45.658;9.272;2022-12-07T21:21:18;5.50;99.90
41168;DHT22;26906;45.658;9.272;2022-12-07T21:23:45;5.40;99.90
41168;DHT22;26906;45.658;9.272;2022-12-07T21:26:17;5.20;99.90
41168;DHT22;26906;45.658;9.272;2022-12-07T21:28:43;5.20;99.90
